Time;durP1;ratioP1;P1;durP2;ratioP2;P2;SDS_P1;SDS_P2;PMS_P1;PMS_P2;Temp;Humidity;BMP_temperature;BMP_pressure;BME280_temperature;BME280_humidity;BME280_pressure;Samples;Min_cycle;Max_cycle;Signal;HPM_P1;HPM_P2
2022/06/21 00:00:40;;;;;;;8.75;1.70;;;23.60;54.30;;;;;;4970946;28;20121;-76
2022/06/21 00:03:10;;;;;;;10.85;1.50;;;23.60;53.80;;;;;;4971250;28;20019;-75
2022/06/21 00:05:43;;;;;;;10.32;1.60;;;23.50;53.70;;;;;;4970620;28;20043;-75
2022/06/21 00:08:16;;;;;;;7.90;1.88;;;23.50;54.10;;;;;;4970684;28;20030;-75
2022/06/21 00:10:42;;;;;;;8.10;1.50;;;23.50;54.00;;;;;;4972357;28;20031;-75
2022/06/21 00:13:15;;;;;;;6.13;1.63;;;23.50;53.90;;;;;;4974119;28;20035;-76
2022/06/21 00:15:42;;;;;;;4.35;1.30;;;23.50;54.00;;;;;;4976619;28;20042;-76
2022/06/21 00:18:17;;;;;;;5.07;1.60;;;23.50;53.80;;;;;;4973685;28;20035;-76
2022/06/21 00:20:44;;;;;;;8.25;1.80;;;23.50;54.00;;;;;;4972828;28;20396;-76
2022/06/21 00:23:14;;;;;;;7.78;1.55;;;23.50;54.00;;;;;;4974334;28;20125;-75
2022/06/21 00:25:41;;;;;;;5.20;1.52;;;23.50;53.90;;;;;;4974228;28;20031;-75
2022/06/21 00:28:06;;;;;;;13.63;1.52;;;23.50;53.60;;;;;;4973024;28;20445;-75
2022/06/21 00:30:32;;;;;;;7.43;1.58;;;23.50;53.60;;;;;;4971170;28;20106;-76
2022/06/21 00:32:58;;;;;;;5.82;1.55;;;23.50;53.40;;;;;;4968715;28;20027;-75
2022/06/21 00:35:25;;;;;;;8.98;1.80;;;23.50;53.60;;;;;;4974213;28;20388;-75
2022/06/21 00:37:52;;;;;;;11.13;1.42;;;23.50;53.70;;;;;;4973417;28;20035;-75
2022/06/21 00:40:29;;;;;;;7.70;1.50;;;23.50;53.90;;;;;;4974334;28;20034;-75
2022/06/21 00:43:04;;;;;;;7.25;1.63;;;23.50;53.80;;;;;;4973724;28;20034;-76
2022/06/21 00:45:32;;;;;;;6.80;1.42;;;23.50;53.70;;;;;;4975971;28;20479;-76
2022/06/21 00:48:13;;;;;;;4.95;1.50;;;23.50;53.70;;;;;;4974726;28;20027;-76
2022/06/21 00:50:44;;;;;;;6.63;1.25;;;23.50;53.60;;;;;;4975967;28;20035;-76
2022/06/21 00:53:24;;;;;;;6.50;1.60;;;23.50;53.80;;;;;;4974970;28;20110;-75
2022/06/21 00:55:59;;;;;;;8.43;1.50;;;23.50;53.90;;;;;;4974430;28;20035;-76
2022/06/21 00:58:27;;;;;;;12.05;1.75;;;23.50;53.80;;;;;;4967311;28;20364;-76
2022/06/21 01:01:01;;;;;;;9.65;1.50;;;23.50;53.60;;;;;;4973821;28;20037;-78
2022/06/21 01:03:32;;;;;;;9.27;2.00;;;23.50;53.10;;;;;;4973703;28;20370;-78
2022/06/21 01:06:03;;;;;;;10.13;1.40;;;23.50;53.70;;;;;;4973528;28;20411;-78
2022/06/21 01:08:34;;;;;;;5.07;1.77;;;23.40;53.60;;;;;;4974911;28;20327;-78
2022/06/21 01:11:05;;;;;;;10.43;1.73;;;23.40;53.70;;;;;;4974799;28;20031;-78
2022/06/21 01:13:35;;;;;;;3.88;1.20;;;23.40;54.00;;;;;;4973653;28;20031;-78
2022/06/21 01:16:02;;;;;;;9.13;1.50;;;23.50;54.40;;;;;;4974568;28;20403;-78
2022/06/21 01:18:28;;;;;;;7.57;2.85;;;23.50;54.30;;;;;;4974641;28;20436;-78
2022/06/21 01:20:56;;;;;;;8.38;2.10;;;23.40;54.20;;;;;;4974225;28;20086;-78
2022/06/21 01:23:55;;;;;;;6.13;1.73;;;23.50;54.30;;;;;;4974095;28;20065;-78
2022/06/21 01:26:43;;;;;;;8.27;1.55;;;23.50;54.50;;;;;;4974093;28;20368;-78
2022/06/21 01:29:14;;;;;;;5.00;1.50;;;23.40;54.50;;;;;;4973527;28;20117;-78
2022/06/21 01:31:40;;;;;;;5.65;1.80;;;23.50;54.60;;;;;;4958147;28;20436;-78
2022/06/21 01:34:15;;;;;;;8.23;1.67;;;23.50;54.60;;;;;;4973357;28;20420;-78
2022/06/21 01:36:41;;;;;;;6.18;1.67;;;23.40;54.50;;;;;;4973079;28;20030;-78
2022/06/21 01:39:10;;;;;;;6.53;1.60;;;23.50;54.60;;;;;;4985262;28;20019;-76
2022/06/21 01:41:46;;;;;;;8.00;1.92;;;23.50;54.20;;;;;;4974588;28;20031;-76
2022/06/21 01:44:22;;;;;;;8.77;1.38;;;23.40;54.30;;;;;;4973898;28;20098;-76
2022/06/21 01:46:48;;;;;;;6.47;1.73;;;23.40;54.10;;;;;;4974187;28;20019;-76
2022/06/21 01:49:17;;;;;;;5.18;1.55;;;23.40;54.10;;;;;;4988450;28;20030;-75
2022/06/21 01:51:57;;;;;;;4.88;1.67;;;23.40;54.00;;;;;;4988984;28;20027;-75
2022/06/21 01:54:27;;;;;;;5.03;1.70;;;23.50;53.90;;;;;;4973006;28;20028;-75
2022/06/21 01:56:53;;;;;;;4.90;1.27;;;23.40;53.70;;;;;;4974848;28;20033;-75
2022/06/21 01:59:34;;;;;;;6.97;1.70;;;23.40;53.60;;;;;;4972241;28;20034;-75
2022/06/21 02:02:18;;;;;;;4.10;1.58;;;23.40;53.50;;;;;;4981542;28;20070;-75
2022/06/21 02:04:58;;;;;;;4.63;1.50;;;23.40;53.40;;;;;;4973344;28;20038;-75
2022/06/21 02:07:52;;;;;;;6.50;2.13;;;23.40;53.50;;;;;;4967279;28;20373;-75
2022/06/21 02:10:41;;;;;;;5.03;1.50;;;23.40;53.40;;;;;;4973943;28;20019;-75
2022/06/21 02:13:11;;;;;;;4.40;1.47;;;23.40;53.30;;;;;;4972701;28;20395;-75
2022/06/21 02:15:46;;;;;;;7.80;1.60;;;23.40;53.10;;;;;;4974758;28;20034;-75
2022/06/21 02:18:14;;;;;;;4.43;1.55;;;23.30;53.30;;;;;;4972951;28;20038;-75
2022/06/21 02:21:01;;;;;;;6.18;1.50;;;23.30;53.00;;;;;;4957335;28;20492;-76
2022/06/21 02:23:27;;;;;;;4.97;1.45;;;23.30;53.00;;;;;;4973242;28;20102;-76
2022/06/21 02:25:56;;;;;;;5.60;1.52;;;23.30;53.10;;;;;;4973044;28;20039;-76
2022/06/21 02:28:23;;;;;;;6.05;1.55;;;23.30;53.20;;;;;;4971519;28;20097;-76
2022/06/21 02:30:52;;;;;;;7.32;1.50;;;23.30;53.10;;;;;;4972081;28;20027;-76
2022/06/21 02:33:24;;;;;;;6.78;1.50;;;23.30;52.90;;;;;;4988602;28;20038;-76
2022/06/21 02:35:52;;;;;;;6.63;1.50;;;23.30;53.10;;;;;;4986880;28;20023;-76
2022/06/21 02:38:23;;;;;;;4.18;1.55;;;23.30;53.30;;;;;;4964634;28;20023;-76
2022/06/21 02:40:56;;;;;;;3.72;1.42;;;23.30;53.00;;;;;;4969120;28;20026;-76
2022/06/21 02:43:43;;;;;;;5.22;1.40;;;23.30;53.10;;;;;;4988358;28;20086;-76
2022/06/21 02:46:13;;;;;;;5.75;1.85;;;23.30;52.80;;;;;;4972186;28;20031;-76
2022/06/21 02:48:48;;;;;;;2.60;1.30;;;23.30;52.70;;;;;;4971922;28;20029;-76
2022/06/21 02:51:20;;;;;;;3.13;1.30;;;23.30;52.70;;;;;;4973216;28;20019;-76
2022/06/21 02:54:12;;;;;;;5.60;1.50;;;23.40;52.80;;;;;;4973640;28;20811;-75
2022/06/21 02:56:48;;;;;;;2.70;1.30;;;23.40;52.80;;;;;;4972651;28;20019;-75
2022/06/21 02:59:15;;;;;;;3.58;1.30;;;23.30;52.80;;;;;;4970205;28;20034;-75
2022/06/21 03:01:53;;;;;;;6.00;1.50;;;23.30;52.80;;;;;;4971393;28;20085;-75
2022/06/21 03:04:42;;;;;;;3.85;1.30;;;23.30;52.80;;;;;;4970699;28;20030;-75
2022/06/21 03:07:14;;;;;;;3.97;1.30;;;23.30;52.70;;;;;;4971770;28;20121;-75
2022/06/21 03:09:41;;;;;;;7.75;1.90;;;23.30;52.70;;;;;;4970954;28;20054;-75
2022/06/21 03:12:07;;;;;;;5.00;1.42;;;23.30;52.50;;;;;;4971864;28;20135;-75
2022/06/21 03:14:36;;;;;;;5.43;1.40;;;23.30;52.50;;;;;;4971011;28;20399;-76
2022/06/21 03:17:04;;;;;;;4.75;1.35;;;23.30;52.60;;;;;;4970456;28;20051;-76
2022/06/21 03:19:40;;;;;;;6.03;1.42;;;23.30;52.70;;;;;;4972272;28;20034;-75
2022/06/21 03:22:26;;;;;;;5.50;1.52;;;23.30;52.70;;;;;;4972183;28;20027;-76
2022/06/21 03:24:56;;;;;;;7.43;1.58;;;23.30;52.40;;;;;;4971907;28;20038;-76
2022/06/21 03:27:45;;;;;;;5.93;1.63;;;23.20;52.30;;;;;;4971320;28;20023;-76
2022/06/21 03:30:18;;;;;;;5.07;1.20;;;23.30;52.50;;;;;;4987411;28;20050;-75
2022/06/21 03:32:45;;;;;;;4.82;1.17;;;23.30;52.40;;;;;;4972587;28;20457;-75
2022/06/21 03:35:13;;;;;;;4.28;1.50;;;23.20;52.30;;;;;;4955328;28;20035;-75
2022/06/21 03:37:40;;;;;;;4.80;1.48;;;23.30;52.50;;;;;;4970243;28;20547;-76
2022/06/21 03:42:55;;;;;;;7.32;1.42;;;23.20;52.40;;;;;;4972255;28;20031;-75
2022/06/21 03:45:27;;;;;;;2.53;1.20;;;23.30;52.90;;;;;;4971877;28;20079;-75
2022/06/21 03:48:03;;;;;;;4.22;1.20;;;23.30;52.40;;;;;;4971324;28;20034;-76
2022/06/21 03:50:36;;;;;;;4.38;1.35;;;23.30;52.40;;;;;;4971982;28;20035;-75
2022/06/21 03:53:20;;;;;;;4.38;1.15;;;23.30;52.40;;;;;;4972335;28;20027;-75
2022/06/21 03:55:55;;;;;;;6.07;1.50;;;23.30;52.40;;;;;;4970869;28;20030;-75
2022/06/21 03:59:00;;;;;;;5.38;1.45;;;23.30;52.50;;;;;;4970380;28;20093;-76
2022/06/21 04:01:45;;;;;;;4.75;1.27;;;23.30;52.50;;;;;;4964796;28;20078;-76
2022/06/21 04:04:35;;;;;;;10.02;1.33;;;23.30;52.50;;;;;;4971575;28;20031;-77
2022/06/21 04:07:30;;;;;;;4.93;1.70;;;23.20;52.40;;;;;;4971178;28;20389;-77
2022/06/21 04:10:08;;;;;;;4.32;1.15;;;23.20;52.30;;;;;;4954052;28;20435;-76
2022/06/21 04:12:37;;;;;;;3.95;1.35;;;23.30;52.30;;;;;;4972128;28;20033;-76
2022/06/21 04:15:41;;;;;;;4.93;1.50;;;23.20;52.40;;;;;;4971020;28;20031;-77
2022/06/21 04:18:26;;;;;;;6.07;1.60;;;23.20;52.30;;;;;;4970168;28;20138;-77
2022/06/21 04:21:15;;;;;;;2.33;1.13;;;23.20;52.60;;;;;;4971515;28;20114;-77
2022/06/21 04:24:00;;;;;;;4.15;1.40;;;23.20;52.40;;;;;;4972092;28;20051;-77
2022/06/21 04:26:40;;;;;;;9.63;1.60;;;23.20;52.40;;;;;;4970515;28;20503;-77
2022/06/21 04:29:14;;;;;;;5.70;1.52;;;23.20;52.40;;;;;;4970454;28;20023;-77
2022/06/21 04:31:45;;;;;;;6.13;1.42;;;23.20;52.30;;;;;;4972137;28;20449;-74
2022/06/21 04:34:30;;;;;;;5.32;1.63;;;23.20;52.30;;;;;;4971100;28;20027;-76
2022/06/21 04:37:48;;;;;;;8.27;1.70;;;23.20;52.30;;;;;;4969677;28;20229;-76
2022/06/21 04:40:31;;;;;;;5.10;1.52;;;23.20;52.40;;;;;;4951163;28;20567;-77
2022/06/21 04:43:03;;;;;;;7.38;1.52;;;23.20;52.40;;;;;;4972018;28;20031;-76
2022/06/21 04:45:42;;;;;;;6.95;1.27;;;23.20;52.30;;;;;;4971057;28;20133;-76
2022/06/21 04:48:34;;;;;;;6.97;1.50;;;23.20;52.40;;;;;;4971110;28;20038;-76
2022/06/21 04:51:31;;;;;;;5.53;1.17;;;23.20;52.20;;;;;;4971007;28;20019;-76
2022/06/21 04:54:06;;;;;;;6.80;1.65;;;23.20;52.40;;;;;;4972125;28;20478;-76
2022/06/21 04:57:11;;;;;;;5.88;1.65;;;23.20;52.40;;;;;;4971120;28;20034;-76
2022/06/21 05:00:05;;;;;;;6.88;1.60;;;23.20;52.40;;;;;;4967284;28;20391;-76
2022/06/21 05:02:36;;;;;;;4.82;1.50;;;23.20;53.10;;;;;;4956256;28;20501;-76
2022/06/21 05:05:15;;;;;;;7.35;1.60;;;23.20;52.50;;;;;;4989579;28;20105;-76
2022/06/21 05:08:09;;;;;;;5.95;1.60;;;23.20;52.40;;;;;;4967367;28;20235;-76
2022/06/21 05:10:38;;;;;;;5.22;1.80;;;23.20;52.40;;;;;;4967175;28;20039;-76
2022/06/21 05:13:12;;;;;;;5.35;1.60;;;23.20;52.60;;;;;;4975076;28;20491;-76
2022/06/21 05:15:41;;;;;;;5.43;1.63;;;23.20;52.60;;;;;;4974557;28;20031;-76
2022/06/21 05:18:16;;;;;;;6.45;1.77;;;23.20;52.70;;;;;;4972905;28;20053;-76
2022/06/21 05:20:53;;;;;;;7.53;1.80;;;23.20;52.50;;;;;;4974512;28;20031;-77
2022/06/21 05:23:21;;;;;;;6.88;1.65;;;23.20;52.50;;;;;;4973977;28;20150;-76
2022/06/21 05:25:49;;;;;;;4.78;1.80;;;23.10;52.50;;;;;;4974442;28;20031;-76
2022/06/21 05:28:27;;;;;;;6.18;1.42;;;23.20;52.60;;;;;;4974121;28;20031;-77
2022/06/21 05:31:02;;;;;;;5.90;1.67;;;23.20;52.60;;;;;;4974545;28;20058;-76
2022/06/21 05:33:39;;;;;;;4.57;1.73;;;23.10;52.60;;;;;;4988191;28;20063;-77
2022/06/21 05:36:11;;;;;;;6.97;1.80;;;23.20;52.60;;;;;;4980141;28;20174;-77
2022/06/21 05:38:54;;;;;;;10.60;3.63;;;23.20;52.60;;;;;;4974082;28;20473;-77
2022/06/21 05:41:31;;;;;;;8.23;2.75;;;23.10;52.50;;;;;;4974100;28;20027;-77
2022/06/21 05:44:34;;;;;;;6.70;2.33;;;23.20;52.60;;;;;;4973945;28;20046;-77
2022/06/21 05:47:52;;;;;;;5.97;2.08;;;23.20;52.70;;;;;;4973104;28;20495;-78
2022/06/21 05:50:24;;;;;;;5.53;2.10;;;23.20;52.60;;;;;;4947966;28;20607;-77
2022/06/21 05:52:55;;;;;;;5.78;2.10;;;23.20;52.60;;;;;;4973659;28;20026;-77
2022/06/21 05:55:40;;;;;;;6.40;1.98;;;23.20;52.60;;;;;;4974674;28;20431;-77
2022/06/21 05:58:22;;;;;;;8.70;2.47;;;23.20;52.60;;;;;;4972561;28;20030;-77
2022/06/21 06:01:00;;;;;;;9.48;2.33;;;23.20;52.60;;;;;;4973954;28;20114;-77
2022/06/21 06:03:32;;;;;;;6.93;2.45;;;23.20;52.70;;;;;;4974620;28;20062;-77
2022/06/21 06:06:04;;;;;;;6.63;2.10;;;23.20;52.70;;;;;;4974177;28;20041;-77
2022/06/21 06:08:41;;;;;;;7.28;2.30;;;23.20;52.60;;;;;;4973644;28;20031;-77
2022/06/21 06:11:15;;;;;;;5.78;2.00;;;23.20;52.60;;;;;;4972051;28;20026;-77
2022/06/21 06:13:43;;;;;;;5.60;2.20;;;23.20;52.60;;;;;;4973499;28;20062;-77
2022/06/21 06:16:32;;;;;;;8.02;2.38;;;23.20;52.70;;;;;;4970830;28;20023;-77
2022/06/21 06:19:21;;;;;;;8.75;2.40;;;23.20;52.70;;;;;;4971406;28;20464;-77
2022/06/21 06:22:16;;;;;;;6.83;2.40;;;23.20;52.70;;;;;;4965679;28;20649;-77
2022/06/21 06:25:10;;;;;;;6.93;2.42;;;23.20;52.70;;;;;;4967656;28;20344;-77
2022/06/21 06:28:14;;;;;;;10.20;2.72;;;23.20;52.80;;;;;;4971895;28;20045;-77
2022/06/21 06:30:55;;;;;;;5.32;2.03;;;23.20;52.80;;;;;;4973831;28;20027;-77
2022/06/21 06:33:32;;;;;;;8.60;2.20;;;23.20;52.80;;;;;;4972238;28;20026;-76
2022/06/21 06:36:05;;;;;;;7.53;2.13;;;23.20;52.70;;;;;;4972721;28;20042;-77
2022/06/21 06:38:31;;;;;;;6.80;1.88;;;23.20;52.80;;;;;;4966945;28;20042;-76
2022/06/21 06:41:05;;;;;;;6.50;2.20;;;23.20;52.80;;;;;;4973662;28;20035;-76
2022/06/21 06:43:34;;;;;;;7.47;2.08;;;23.20;52.80;;;;;;4966529;28;20056;-77
2022/06/21 06:46:00;;;;;;;9.98;2.58;;;23.20;52.90;;;;;;4972245;28;20506;-76
2022/06/21 06:48:32;;;;;;;6.97;2.75;;;23.20;52.80;;;;;;4971321;28;20038;-75
2022/06/21 06:51:30;;;;;;;8.88;2.35;;;23.20;52.90;;;;;;4971790;28;20029;-75
2022/06/21 06:53:59;;;;;;;6.63;2.10;;;23.20;53.50;;;;;;4971335;28;20031;-75
2022/06/21 06:56:32;;;;;;;6.78;2.22;;;23.20;52.90;;;;;;4971253;28;20023;-76
2022/06/21 06:59:05;;;;;;;8.40;2.60;;;23.20;52.90;;;;;;4972692;28;20027;-76
2022/06/21 07:01:46;;;;;;;6.47;2.28;;;23.20;53.10;;;;;;4969483;28;20054;-76
2022/06/21 07:04:16;;;;;;;7.15;2.10;;;23.20;53.00;;;;;;4971883;28;20046;-76
2022/06/21 07:06:54;;;;;;;10.27;2.35;;;23.20;53.10;;;;;;5011709;23;20108;-71
2022/06/21 07:09:26;;;;;;;10.52;2.20;;;23.20;53.20;;;;;;5002258;28;20518;-71
2022/06/21 07:12:15;;;;;;;8.27;2.13;;;23.20;53.20;;;;;;5010292;28;20026;-71
2022/06/21 07:14:43;;;;;;;4.90;1.67;;;23.20;53.30;;;;;;5010274;28;20037;-71
2022/06/21 07:17:25;;;;;;;8.48;2.72;;;23.20;53.20;;;;;;5010629;28;20452;-71
2022/06/21 07:19:53;;;;;;;8.38;2.10;;;23.20;54.00;;;;;;5010758;28;20133;-70
2022/06/21 07:22:25;;;;;;;9.07;2.50;;;23.20;53.50;;;;;;5010387;28;20026;-70
2022/06/21 07:25:14;;;;;;;7.28;2.15;;;23.20;53.40;;;;;;5009777;28;20034;-71
2022/06/21 07:27:43;;;;;;;8.85;1.92;;;23.20;53.40;;;;;;5009821;28;20068;-70
2022/06/21 07:30:12;;;;;;;10.32;2.00;;;23.20;53.40;;;;;;5011069;28;20517;-70
2022/06/21 07:32:47;;;;;;;5.70;1.77;;;23.20;53.50;;;;;;5010937;28;20541;-71
2022/06/21 07:35:27;;;;;;;6.05;1.85;;;23.20;54.00;;;;;;5011308;28;20037;-71
2022/06/21 07:38:06;;;;;;;8.68;2.20;;;23.20;53.40;;;;;;5009286;28;20110;-71
2022/06/21 07:40:44;;;;;;;6.70;2.20;;;23.20;53.40;;;;;;5010635;28;20080;-70
2022/06/21 07:43:32;;;;;;;7.45;2.33;;;23.20;53.30;;;;;;5009801;28;20038;-70
2022/06/21 07:46:01;;;;;;;6.60;1.90;;;23.20;53.40;;;;;;5006872;28;20034;-70
2022/06/21 07:48:45;;;;;;;7.32;2.22;;;23.20;53.20;;;;;;5007669;28;20025;-70
2022/06/21 07:51:20;;;;;;;7.45;1.90;;;23.20;53.30;;;;;;5009905;28;20390;-70
2022/06/21 07:53:52;;;;;;;5.45;1.70;;;23.20;53.40;;;;;;5010119;28;20034;-70
2022/06/21 07:56:28;;;;;;;5.88;1.70;;;23.20;53.20;;;;;;5027413;28;20025;-70
2022/06/21 07:58:56;;;;;;;7.50;1.80;;;23.20;53.20;;;;;;5010362;28;20058;-72
2022/06/21 08:07:53;;;;;;;5.63;2.05;;;23.30;53.40;;;;;;4985145;28;20062;-71
2022/06/21 08:10:35;;;;;;;6.13;2.00;;;23.30;53.50;;;;;;5011267;28;20018;-71
2022/06/21 08:13:01;;;;;;;5.20;1.85;;;23.30;53.40;;;;;;5024578;28;20022;-71
2022/06/21 08:15:32;;;;;;;13.65;2.67;;;23.30;53.30;;;;;;5026480;28;20387;-71
2022/06/21 08:18:07;;;;;;;11.57;2.15;;;23.30;53.80;;;;;;5005091;28;20030;-72
2022/06/21 08:20:41;;;;;;;10.10;1.95;;;23.30;54.00;;;;;;5007103;28;20045;-73
2022/06/21 08:23:14;;;;;;;7.93;2.30;;;23.30;53.60;;;;;;5013320;28;20022;-72
2022/06/21 08:25:40;;;;;;;7.75;2.17;;;23.30;52.50;;;;;;5010603;28;20494;-72
2022/06/21 08:28:18;;;;;;;10.45;2.00;;;23.30;52.70;;;;;;5008087;28;20036;-71
2022/06/21 08:30:56;;;;;;;10.90;2.60;;;23.30;52.10;;;;;;5011297;28;20406;-71
2022/06/21 08:33:27;;;;;;;10.77;2.05;;;23.30;52.50;;;;;;5010387;28;20026;-74
2022/06/21 08:36:02;;;;;;;9.70;2.22;;;23.30;52.30;;;;;;5015042;28;20494;-73
2022/06/21 08:38:28;;;;;;;9.77;2.05;;;23.30;53.00;;;;;;5013229;28;20038;-73
2022/06/21 08:41:55;;;;;;;14.13;2.05;;;23.30;52.40;;;;;;5013632;28;20080;-73
2022/06/21 08:44:46;;;;;;;10.40;2.00;;;23.30;51.60;;;;;;5007016;28;20042;-73
2022/06/21 08:47:33;;;;;;;15.10;2.00;;;23.30;51.30;;;;;;5014326;28;20034;-74
2022/06/21 08:50:28;;;;;;;8.77;2.17;;;23.30;50.70;;;;;;5012812;28;20418;-74
2022/06/21 08:53:19;;;;;;;9.00;1.95;;;23.30;50.60;;;;;;5007231;28;20026;-75
2022/06/21 08:55:57;;;;;;;9.77;1.70;;;23.40;50.20;;;;;;5013763;28;20021;-74
2022/06/21 08:58:53;;;;;;;6.47;1.88;;;23.30;50.70;;;;;;5013827;28;20525;-73
2022/06/21 09:02:13;;;;;;;8.75;1.88;;;23.30;50.60;;;;;;5014754;28;20041;-74
2022/06/21 09:04:56;;;;;;;9.73;2.08;;;23.30;50.70;;;;;;4994008;28;20041;-74
2022/06/21 09:07:41;;;;;;;9.15;1.90;;;23.30;50.80;;;;;;5013787;28;20511;-74
2022/06/21 09:10:25;;;;;;;8.20;2.20;;;23.30;50.30;;;;;;5012959;28;20414;-75
2022/06/21 09:13:09;;;;;;;8.93;1.70;;;23.40;50.40;;;;;;5014646;28;20029;-75
2022/06/21 09:15:47;;;;;;;6.03;1.50;;;23.40;50.70;;;;;;5014347;28;20072;-74
2022/06/21 09:18:46;;;;;;;8.65;1.80;;;23.30;49.10;;;;;;5013401;28;20060;-75
2022/06/21 09:21:27;;;;;;;7.72;1.90;;;23.30;50.30;;;;;;5014403;28;20439;-75
2022/06/21 09:24:17;;;;;;;6.32;1.58;;;23.30;49.50;;;;;;5014191;28;20037;-75
2022/06/21 09:26:51;;;;;;;9.15;1.67;;;23.30;49.90;;;;;;5014113;28;20042;-75
2022/06/21 09:29:48;;;;;;;7.28;1.83;;;23.30;49.40;;;;;;5013012;28;20037;-74
2022/06/21 09:32:45;;;;;;;7.20;1.30;;;23.30;49.30;;;;;;4996627;28;20343;-72
2022/06/21 09:35:33;;;;;;;6.75;1.83;;;23.30;49.40;;;;;;5013646;28;20057;-72
2022/06/21 09:38:19;;;;;;;8.98;1.80;;;23.30;49.50;;;;;;5012277;28;20042;-73
2022/06/21 09:41:17;;;;;;;4.40;1.30;;;23.30;49.70;;;;;;5012590;28;20054;-74
2022/06/21 09:43:52;;;;;;;4.93;1.48;;;23.30;49.70;;;;;;5012846;28;20117;-73
2022/06/21 09:46:31;;;;;;;7.90;1.30;;;23.40;49.50;;;;;;5013196;28;20117;-73
2022/06/21 09:49:08;;;;;;;4.63;1.10;;;23.40;50.10;;;;;;5013022;28;20128;-74
2022/06/21 09:52:01;;;;;;;4.95;1.20;;;23.40;49.90;;;;;;5028720;28;20037;-74
2022/06/21 09:54:37;;;;;;;5.32;1.33;;;23.40;49.90;;;;;;4996107;28;20033;-74
2022/06/21 09:57:26;;;;;;;6.28;1.23;;;23.40;50.20;;;;;;5013547;28;20486;-73
2022/06/21 09:59:58;;;;;;;6.63;1.60;;;23.00;44.20;;;;;;5013437;28;20104;-72
2022/06/21 10:02:48;;;;;;;6.53;1.63;;;22.90;48.10;;;;;;5013648;28;20487;-72
2022/06/21 10:05:28;;;;;;;9.93;1.65;;;22.60;45.70;;;;;;5011818;28;20056;-73
2022/06/21 10:08:09;;;;;;;10.73;1.88;;;22.40;46.50;;;;;;5008859;28;20022;-73
2022/06/21 10:10:40;;;;;;;7.60;2.00;;;22.50;47.90;;;;;;5013056;28;20022;-73
2022/06/21 10:13:12;;;;;;;6.93;1.60;;;22.60;49.50;;;;;;5023581;28;20537;-74
2022/06/21 10:15:56;;;;;;;6.63;1.83;;;22.60;47.60;;;;;;5007703;28;20537;-73
2022/06/21 10:18:55;;;;;;;7.80;1.85;;;22.70;49.40;;;;;;5009928;28;20037;-73
2022/06/21 10:21:33;;;;;;;5.85;1.55;;;22.70;49.80;;;;;;5009840;28;20034;-73
2022/06/21 10:24:35;;;;;;;5.03;1.27;;;22.70;45.60;;;;;;5026187;28;20126;-74
2022/06/21 10:27:23;;;;;;;9.45;2.15;;;22.50;47.20;;;;;;5007805;28;20897;-73
2022/06/21 10:30:03;;;;;;;6.85;1.55;;;22.60;45.80;;;;;;5008508;28;20076;-73
2022/06/21 10:32:41;;;;;;;7.03;1.55;;;22.60;46.80;;;;;;5025773;28;20033;-74
2022/06/21 10:35:17;;;;;;;6.28;1.50;;;22.60;46.00;;;;;;5024988;28;20411;-73
2022/06/21 10:38:32;;;;;;;4.18;1.30;;;22.70;47.00;;;;;;5021909;28;20107;-72
2022/06/21 10:41:16;;;;;;;9.25;2.05;;;22.70;45.70;;;;;;4987792;28;20030;-74
2022/06/21 10:44:08;;;;;;;6.63;1.58;;;22.40;44.10;;;;;;5008552;28;20037;-75
2022/06/21 10:46:44;;;;;;;7.55;1.60;;;22.50;46.40;;;;;;5009114;28;20029;-74
2022/06/21 10:49:47;;;;;;;8.75;1.50;;;22.60;45.10;;;;;;5009402;28;20117;-74
2022/06/21 10:52:31;;;;;;;5.30;1.50;;;22.60;44.20;;;;;;4977618;28;20064;-73
2022/06/21 10:55:31;;;;;;;4.13;1.30;;;22.40;43.60;;;;;;5010310;28;20026;-74
2022/06/21 10:58:32;;;;;;;5.80;1.60;;;22.40;43.00;;;;;;5023523;28;20041;-73
2022/06/21 11:01:30;;;;;;;6.57;1.45;;;22.20;43.00;;;;;;4976819;28;20054;-73
2022/06/21 11:04:08;;;;;;;7.47;1.40;;;22.10;42.80;;;;;;5001406;28;20040;-73
2022/06/21 11:07:07;;;;;;;7.40;1.40;;;22.20;42.60;;;;;;5009416;28;20045;-74
2022/06/21 11:09:45;;;;;;;5.95;1.38;;;22.20;41.60;;;;;;4991805;28;20030;-73
2022/06/21 11:12:55;;;;;;;4.65;1.50;;;22.20;42.30;;;;;;5005693;28;20060;-72
2022/06/21 11:15:48;;;;;;;4.07;1.30;;;22.30;42.50;;;;;;4993108;28;20049;-73
2022/06/21 11:18:33;;;;;;;3.78;1.15;;;22.20;41.60;;;;;;5008864;28;20030;-73
2022/06/21 11:21:27;;;;;;;5.25;1.15;;;22.30;41.10;;;;;;5024512;28;20125;-73
2022/06/21 11:24:16;;;;;;;5.00;1.30;;;22.30;42.30;;;;;;5007367;28;20046;-73
2022/06/21 11:26:59;;;;;;;4.97;1.35;;;22.50;43.00;;;;;;5004618;28;20038;-75
2022/06/21 11:30:00;;;;;;;6.80;1.40;;;22.70;43.40;;;;;;5009164;28;20116;-75
2022/06/21 11:32:29;;;;;;;6.63;1.40;;;22.80;43.20;;;;;;5002795;28;20022;-75
2022/06/21 11:35:10;;;;;;;4.70;1.23;;;23.00;43.60;;;;;;5007720;28;20030;-75
2022/06/21 11:38:09;;;;;;;6.40;1.73;;;23.00;43.70;;;;;;5008412;28;20030;-75
2022/06/21 11:40:48;;;;;;;4.35;1.30;;;23.10;43.80;;;;;;5005875;28;20068;-75
2022/06/21 11:43:39;;;;;;;8.40;1.63;;;23.10;43.80;;;;;;5011657;28;20026;-75
2022/06/21 11:46:27;;;;;;;14.68;3.85;;;23.10;44.10;;;;;;5011525;28;20079;-77
2022/06/21 11:49:01;;;;;;;11.15;3.88;;;23.20;44.40;;;;;;5009832;28;20060;-75
2022/06/21 11:52:00;;;;;;;10.02;3.45;;;23.20;44.40;;;;;;5011499;28;20030;-75
2022/06/21 11:54:45;;;;;;;7.63;2.90;;;23.20;44.20;;;;;;4994255;28;20048;-75
2022/06/21 11:57:38;;;;;;;5.47;2.42;;;23.20;44.40;;;;;;5011187;28;20815;-75
2022/06/21 12:00:24;;;;;;;5.80;2.20;;;23.20;44.70;;;;;;5010598;28;20029;-75
2022/06/21 12:03:00;;;;;;;5.20;2.00;;;23.20;44.80;;;;;;5011044;28;20043;-75
2022/06/21 12:05:44;;;;;;;9.40;2.17;;;23.30;45.00;;;;;;5011209;28;20482;-75
2022/06/21 12:08:32;;;;;;;7.75;2.05;;;23.30;45.30;;;;;;5008999;28;20037;-76
2022/06/21 12:11:12;;;;;;;7.03;2.33;;;23.30;45.20;;;;;;5026668;28;20018;-75
2022/06/21 12:14:15;;;;;;;7.50;2.00;;;23.30;45.70;;;;;;4976578;28;20060;-75
2022/06/21 12:17:12;;;;;;;8.32;1.70;;;23.30;45.20;;;;;;5010711;28;20022;-75
2022/06/21 12:19:41;;;;;;;5.18;1.90;;;23.30;45.00;;;;;;4978847;28;20042;-75
2022/06/21 12:22:33;;;;;;;7.25;1.80;;;23.30;45.20;;;;;;5026553;28;20037;-75
2022/06/21 12:24:59;;;;;;;7.03;1.60;;;23.30;45.20;;;;;;5025371;28;20108;-75
2022/06/21 12:27:25;;;;;;;8.70;2.03;;;23.30;45.90;;;;;;5009051;28;20499;-79
2022/06/21 12:29:59;;;;;;;13.27;1.98;;;23.30;45.20;;;;;;5011202;28;20049;-94
2022/06/21 12:32:27;;;;;;;4.43;1.50;;;23.40;45.70;;;;;;5026597;28;20022;-79
2022/06/21 12:35:04;;;;;;;8.07;1.98;;;23.40;44.20;;;;;;5011196;28;20018;-78
2022/06/21 12:37:59;;;;;;;9.63;1.70;;;23.40;46.70;;;;;;5025932;28;20042;-79
2022/06/21 12:40:36;;;;;;;4.40;1.40;;;23.30;46.20;;;;;;5001663;28;20030;-79
2022/06/21 12:43:14;;;;;;;5.55;1.40;;;23.30;45.40;;;;;;5008885;28;20053;-79
2022/06/21 12:45:45;;;;;;;5.30;1.80;;;23.30;46.30;;;;;;5009973;28;20048;-79
2022/06/21 12:48:26;;;;;;;5.32;1.50;;;23.30;46.20;;;;;;4992824;28;20372;-78
2022/06/21 12:51:18;;;;;;;4.32;1.50;;;23.30;46.50;;;;;;5011006;28;20026;-79
2022/06/21 12:53:58;;;;;;;4.55;1.48;;;23.30;46.30;;;;;;5008896;28;20022;-79
2022/06/21 12:56:46;;;;;;;5.65;1.50;;;23.30;46.00;;;;;;5011082;28;20049;-78
2022/06/21 12:59:33;;;;;;;5.85;1.52;;;23.20;46.60;;;;;;5010382;28;20040;-77
2022/06/21 13:02:19;;;;;;;6.43;1.60;;;23.30;46.60;;;;;;5011540;28;20395;-79
2022/06/21 13:05:06;;;;;;;4.90;1.55;;;23.30;46.80;;;;;;5009863;28;20165;-80
2022/06/21 13:08:10;;;;;;;4.20;1.48;;;23.20;46.80;;;;;;5005144;23;20409;-70
2022/06/21 13:11:14;;;;;;;3.85;1.50;;;23.30;46.80;;;;;;5004212;28;20026;-69
2022/06/21 13:14:18;;;;;;;4.38;1.50;;;23.20;46.90;;;;;;5009593;28;20741;-70
2022/06/21 13:16:57;;;;;;;3.90;1.35;;;23.20;46.60;;;;;;5010814;28;20483;-69
2022/06/21 13:19:41;;;;;;;8.98;2.28;;;23.30;47.00;;;;;;5008944;28;20049;-70
2022/06/21 13:22:32;;;;;;;5.75;1.58;;;23.20;47.00;;;;;;5014218;28;20032;-70
2022/06/21 13:25:01;;;;;;;5.03;1.48;;;23.20;47.10;;;;;;5014117;28;20471;-70
2022/06/21 13:27:37;;;;;;;3.60;1.30;;;23.20;47.10;;;;;;4995759;28;20116;-70
2022/06/21 13:30:31;;;;;;;5.10;1.83;;;23.20;46.80;;;;;;5014402;28;20029;-70
2022/06/21 13:33:17;;;;;;;4.05;1.50;;;23.20;47.10;;;;;;5014211;28;20057;-69
2022/06/21 13:36:13;;;;;;;5.97;1.67;;;23.20;46.90;;;;;;5013970;28;20092;-71
2022/06/21 13:38:49;;;;;;;7.68;2.22;;;23.30;46.00;;;;;;5013263;28;20105;-70
2022/06/21 13:44:33;;;;;;;4.22;1.50;;;23.30;46.30;;;;;;5012919;28;20065;-70
2022/06/21 13:47:24;;;;;;;26.25;2.25;;;23.30;46.60;;;;;;5013884;28;20036;-76
2022/06/21 13:50:06;;;;;;;14.90;1.65;;;23.30;46.80;;;;;;5013788;28;20057;-76
2022/06/21 13:53:00;;;;;;;12.85;2.35;;;23.20;47.10;;;;;;5013113;28;20387;-76
2022/06/21 13:55:41;;;;;;;11.35;2.25;;;23.20;47.20;;;;;;4996845;28;20096;-76
2022/06/21 13:58:34;;;;;;;8.65;1.98;;;23.20;47.30;;;;;;5012699;28;20037;-75
2022/06/21 14:01:12;;;;;;;14.85;3.45;;;23.20;47.50;;;;;;5012857;28;20037;-75
2022/06/21 14:03:52;;;;;;;11.38;2.47;;;23.20;47.50;;;;;;5012705;28;20766;-76